首页
METAR-TAF:

METAR-TAF

机场 :

Wawa, 安大略省, 加拿大

纬度: 47-58N, 经度: 084-47W, 海拔: 287米

当前天气观测

该预报发布于30分钟前的20:00 UTC
风速4节,风向西,有时为18节阵风,在西转西北之间变化
温度 13°C
湿度 67%
气压 1002 hPa
能見度: 24.1公里
少量云层高于2500英尺
多云层高于8700英尺
多云层高于28000英尺

METAR: CYXZ 182000Z 26004G18KT 180V300 15SM FEW025 BKN087 BKN280 13/07 A2960 RMK CF1AC5CI1 CF TR SLP030 DENSITY ALT 1400FT

时间: 16:30 (20:30 UTC)

预报

该预报发布于48分钟前的19:42 UTC
预报有效从18日的 20点(UTC)到 18日的 24点(UTC)
风速8节,风向西南,有时为18节阵风
能見度: 10公里
少量云层高于2500英尺
散云层高于18000英尺
从 18日的 2100点(UTC)
风速8节,风向西南,有时为18节阵风
能見度: 10公里
多云层高于8000英尺
短暂存在
从 18日的 23点(UTC)到 18日的 24点(UTC)
能見度: 10公里
小阵雨

TAF: CYXZ 181942Z 1820/1824 22008G18KT P6SM FEW025 SCT180 FM182100 22008G18KT P6SM BKN080 TEMPO 1823/1824 P6SM -SHRA RMK NXT FCST WILL BE ISSUED AT 191245Z

超过4000个机场的气象观测和天气预报(METAR&TAF报告)。

可查询的气象台以黄色和红色小点在地图上表示。

将鼠标移到小点上方,可查看气象台名称。

然后点击查看天气观测和预报。

如需切换地图:点击带黑十字的绿色按钮放大地图;点击带横线的绿色按钮缩小地图;或者点击绿色箭头查看邻近地区的地图。


METAR-TAF: